sensor_id;sensor_type;location;lat;lon;timestamp;P1;durP1;ratioP1;P2;durP2;ratioP2
47749;SDS011;49810;48.160;10.812;2023-03-12T00:01:20;11.32;;;6.20;;
47749;SDS011;49810;48.160;10.812;2023-03-12T00:03:48;13.77;;;6.47;;
47749;SDS011;49810;48.160;10.812;2023-03-12T00:06:17;15.10;;;6.18;;
47749;SDS011;49810;48.160;10.812;2023-03-12T00:08:45;12.35;;;6.10;;
47749;SDS011;49810;48.160;10.812;2023-03-12T00:11:14;14.30;;;6.57;;
47749;SDS011;49810;48.160;10.812;2023-03-12T00:13:42;11.50;;;6.15;;
47749;SDS011;49810;48.160;10.812;2023-03-12T00:16:10;10.38;;;6.10;;
47749;SDS011;49810;48.160;10.812;2023-03-12T00:18:39;12.50;;;6.15;;
47749;SDS011;49810;48.160;10.812;2023-03-12T00:21:07;12.88;;;7.45;;
47749;SDS011;49810;48.160;10.812;2023-03-12T00:23:37;15.48;;;6.95;;
47749;SDS011;49810;48.160;10.812;2023-03-12T00:26:05;14.32;;;6.47;;
47749;SDS011;49810;48.160;10.812;2023-03-12T00:28:33;14.93;;;7.63;;
47749;SDS011;49810;48.160;10.812;2023-03-12T00:31:01;13.85;;;7.13;;
47749;SDS011;49810;48.160;10.812;2023-03-12T00:33:29;15.45;;;8.20;;
47749;SDS011;49810;48.160;10.812;2023-03-12T00:35:58;12.77;;;7.72;;
47749;SDS011;49810;48.160;10.812;2023-03-12T00:38:26;14.95;;;7.10;;
47749;SDS011;49810;48.160;10.812;2023-03-12T00:40:55;14.45;;;7.60;;
47749;SDS011;49810;48.160;10.812;2023-03-12T00:43:23;11.20;;;6.70;;
47749;SDS011;49810;48.160;10.812;2023-03-12T00:45:51;13.30;;;7.03;;
47749;SDS011;49810;48.160;10.812;2023-03-12T00:48:19;13.75;;;6.95;;
47749;SDS011;49810;48.160;10.812;2023-03-12T00:50:47;12.57;;;7.10;;
47749;SDS011;49810;48.160;10.812;2023-03-12T00:53:14;13.68;;;7.35;;
47749;SDS011;49810;48.160;10.812;2023-03-12T00:55:42;13.38;;;6.93;;
47749;SDS011;49810;48.160;10.812;2023-03-12T00:58:11;15.00;;;7.10;;
47749;SDS011;49810;48.160;10.812;2023-03-12T01:00:39;12.88;;;6.90;;
47749;SDS011;49810;48.160;10.812;2023-03-12T01:03:07;12.00;;;6.75;;
47749;SDS011;49810;48.160;10.812;2023-03-12T01:05:35;13.27;;;6.90;;
47749;SDS011;49810;48.160;10.812;2023-03-12T01:08:03;15.75;;;6.70;;
47749;SDS011;49810;48.160;10.812;2023-03-12T01:10:31;11.35;;;6.43;;
47749;SDS011;49810;48.160;10.812;2023-03-12T01:12:58;12.82;;;6.82;;
47749;SDS011;49810;48.160;10.812;2023-03-12T01:15:28;11.32;;;6.32;;
47749;SDS011;49810;48.160;10.812;2023-03-12T01:17:56;12.68;;;6.78;;
47749;SDS011;49810;48.160;10.812;2023-03-12T01:20:24;12.60;;;6.88;;
47749;SDS011;49810;48.160;10.812;2023-03-12T01:22:52;11.90;;;6.40;;
47749;SDS011;49810;48.160;10.812;2023-03-12T01:25:20;11.18;;;6.53;;
47749;SDS011;49810;48.160;10.812;2023-03-12T01:27:47;11.90;;;6.55;;
47749;SDS011;49810;48.160;10.812;2023-03-12T01:30:15;17.60;;;7.45;;
47749;SDS011;49810;48.160;10.812;2023-03-12T01:32:44;13.13;;;6.75;;
47749;SDS011;49810;48.160;10.812;2023-03-12T01:35:12;14.68;;;8.15;;
47749;SDS011;49810;48.160;10.812;2023-03-12T01:37:40;13.40;;;7.50;;
47749;SDS011;49810;48.160;10.812;2023-03-12T01:40:10;14.77;;;7.15;;
47749;SDS011;49810;48.160;10.812;2023-03-12T01:42:40;13.73;;;7.22;;
47749;SDS011;49810;48.160;10.812;2023-03-12T01:47:52;17.42;;;7.50;;
47749;SDS011;49810;48.160;10.812;2023-03-12T01:50:20;13.93;;;7.95;;
47749;SDS011;49810;48.160;10.812;2023-03-12T01:52:48;11.25;;;7.20;;
47749;SDS011;49810;48.160;10.812;2023-03-12T01:55:16;13.93;;;7.82;;
47749;SDS011;49810;48.160;10.812;2023-03-12T01:57:47;18.70;;;8.23;;
47749;SDS011;49810;48.160;10.812;2023-03-12T02:00:18;17.70;;;8.18;;
47749;SDS011;49810;48.160;10.812;2023-03-12T02:02:47;22.90;;;10.07;;
47749;SDS011;49810;48.160;10.812;2023-03-12T02:05:23;25.52;;;10.45;;
47749;SDS011;49810;48.160;10.812;2023-03-12T02:07:52;24.77;;;10.30;;
47749;SDS011;49810;48.160;10.812;2023-03-12T02:10:20;19.77;;;9.38;;
47749;SDS011;49810;48.160;10.812;2023-03-12T02:12:48;16.23;;;8.20;;
47749;SDS011;49810;48.160;10.812;2023-03-12T02:15:16;14.57;;;8.73;;
47749;SDS011;49810;48.160;10.812;2023-03-12T02:17:44;15.52;;;8.13;;
47749;SDS011;49810;48.160;10.812;2023-03-12T02:20:13;13.43;;;7.68;;
47749;SDS011;49810;48.160;10.812;2023-03-12T02:22:46;16.67;;;8.50;;
47749;SDS011;49810;48.160;10.812;2023-03-12T02:25:27;15.50;;;8.60;;
47749;SDS011;49810;48.160;10.812;2023-03-12T02:27:56;14.13;;;8.13;;
47749;SDS011;49810;48.160;10.812;2023-03-12T02:30:25;16.80;;;8.23;;
47749;SDS011;49810;48.160;10.812;2023-03-12T02:32:54;15.50;;;6.85;;
47749;SDS011;49810;48.160;10.812;2023-03-12T02:35:22;14.70;;;7.10;;
47749;SDS011;49810;48.160;10.812;2023-03-12T02:37:51;15.23;;;7.60;;
47749;SDS011;49810;48.160;10.812;2023-03-12T02:40:21;12.95;;;7.53;;
47749;SDS011;49810;48.160;10.812;2023-03-12T02:42:52;15.48;;;8.32;;
47749;SDS011;49810;48.160;10.812;2023-03-12T02:45:20;17.05;;;9.55;;
47749;SDS011;49810;48.160;10.812;2023-03-12T02:47:48;18.42;;;10.13;;
47749;SDS011;49810;48.160;10.812;2023-03-12T02:50:16;19.27;;;9.80;;
47749;SDS011;49810;48.160;10.812;2023-03-12T02:52:44;26.30;;;12.13;;
47749;SDS011;49810;48.160;10.812;2023-03-12T02:55:11;27.80;;;12.27;;
47749;SDS011;49810;48.160;10.812;2023-03-12T02:57:39;27.05;;;13.02;;
47749;SDS011;49810;48.160;10.812;2023-03-12T03:00:13;23.70;;;12.32;;
47749;SDS011;49810;48.160;10.812;2023-03-12T03:02:47;23.55;;;11.43;;
47749;SDS011;49810;48.160;10.812;2023-03-12T03:05:15;19.67;;;11.20;;
47749;SDS011;49810;48.160;10.812;2023-03-12T03:07:43;23.25;;;12.35;;
47749;SDS011;49810;48.160;10.812;2023-03-12T03:10:11;17.58;;;11.18;;
47749;SDS011;49810;48.160;10.812;2023-03-12T03:12:41;22.20;;;12.75;;
47749;SDS011;49810;48.160;10.812;2023-03-12T03:15:09;22.13;;;12.07;;
47749;SDS011;49810;48.160;10.812;2023-03-12T03:17:39;25.63;;;12.75;;
47749;SDS011;49810;48.160;10.812;2023-03-12T03:20:07;22.92;;;12.90;;
47749;SDS011;49810;48.160;10.812;2023-03-12T03:22:36;25.13;;;14.18;;
47749;SDS011;49810;48.160;10.812;2023-03-12T03:25:05;23.48;;;13.45;;
47749;SDS011;49810;48.160;10.812;2023-03-12T03:27:33;25.15;;;13.18;;
47749;SDS011;49810;48.160;10.812;2023-03-12T03:30:00;23.58;;;13.38;;
47749;SDS011;49810;48.160;10.812;2023-03-12T03:32:31;23.75;;;13.60;;
47749;SDS011;49810;48.160;10.812;2023-03-12T03:35:00;24.85;;;14.07;;
47749;SDS011;49810;48.160;10.812;2023-03-12T03:37:29;30.90;;;16.80;;
47749;SDS011;49810;48.160;10.812;2023-03-12T03:39:57;26.27;;;15.20;;
47749;SDS011;49810;48.160;10.812;2023-03-12T03:42:26;30.35;;;16.55;;
47749;SDS011;49810;48.160;10.812;2023-03-12T03:44:53;28.33;;;15.85;;
47749;SDS011;49810;48.160;10.812;2023-03-12T03:47:21;27.15;;;15.80;;
47749;SDS011;49810;48.160;10.812;2023-03-12T03:49:49;29.08;;;16.23;;
47749;SDS011;49810;48.160;10.812;2023-03-12T03:52:18;28.02;;;16.42;;
47749;SDS011;49810;48.160;10.812;2023-03-12T03:54:46;30.27;;;16.92;;
47749;SDS011;49810;48.160;10.812;2023-03-12T03:57:14;33.08;;;17.30;;
47749;SDS011;49810;48.160;10.812;2023-03-12T03:59:42;36.20;;;19.35;;
47749;SDS011;49810;48.160;10.812;2023-03-12T04:02:09;37.28;;;19.50;;
47749;SDS011;49810;48.160;10.812;2023-03-12T04:04:38;45.38;;;21.58;;
47749;SDS011;49810;48.160;10.812;2023-03-12T04:07:07;39.08;;;20.25;;
47749;SDS011;49810;48.160;10.812;2023-03-12T04:09:37;38.63;;;19.95;;
47749;SDS011;49810;48.160;10.812;2023-03-12T04:12:05;39.90;;;21.30;;
47749;SDS011;49810;48.160;10.812;2023-03-12T04:14:38;42.90;;;22.77;;
47749;SDS011;49810;48.160;10.812;2023-03-12T04:17:06;35.58;;;19.52;;
47749;SDS011;49810;48.160;10.812;2023-03-12T04:19:34;36.70;;;20.45;;
47749;SDS011;49810;48.160;10.812;2023-03-12T04:22:04;41.00;;;22.38;;
47749;SDS011;49810;48.160;10.812;2023-03-12T04:24:31;35.97;;;19.20;;
47749;SDS011;49810;48.160;10.812;2023-03-12T04:27:00;39.22;;;20.58;;
47749;SDS011;49810;48.160;10.812;2023-03-12T04:29:29;33.50;;;18.75;;
47749;SDS011;49810;48.160;10.812;2023-03-12T04:31:57;37.42;;;19.13;;
47749;SDS011;49810;48.160;10.812;2023-03-12T04:34:24;39.55;;;20.55;;
47749;SDS011;49810;48.160;10.812;2023-03-12T04:36:53;34.53;;;18.55;;
47749;SDS011;49810;48.160;10.812;2023-03-12T04:39:21;35.90;;;19.83;;
47749;SDS011;49810;48.160;10.812;2023-03-12T04:41:51;38.70;;;20.48;;
47749;SDS011;49810;48.160;10.812;2023-03-12T04:44:20;38.38;;;20.77;;
47749;SDS011;49810;48.160;10.812;2023-03-12T04:46:48;34.00;;;19.15;;
47749;SDS011;49810;48.160;10.812;2023-03-12T04:49:19;37.50;;;20.67;;
47749;SDS011;49810;48.160;10.812;2023-03-12T04:51:47;40.20;;;21.75;;
47749;SDS011;49810;48.160;10.812;2023-03-12T04:54:17;37.25;;;19.85;;
47749;SDS011;49810;48.160;10.812;2023-03-12T04:56:46;40.22;;;19.35;;
47749;SDS011;49810;48.160;10.812;2023-03-12T04:59:15;34.50;;;18.60;;
47749;SDS011;49810;48.160;10.812;2023-03-12T05:01:45;32.58;;;17.52;;
47749;SDS011;49810;48.160;10.812;2023-03-12T05:04:18;30.10;;;17.38;;
47749;SDS011;49810;48.160;10.812;2023-03-12T05:06:48;28.73;;;16.73;;
47749;SDS011;49810;48.160;10.812;2023-03-12T05:09:16;27.42;;;16.23;;
47749;SDS011;49810;48.160;10.812;2023-03-12T05:11:44;27.60;;;14.75;;
47749;SDS011;49810;48.160;10.812;2023-03-12T05:14:14;25.45;;;14.07;;
47749;SDS011;49810;48.160;10.812;2023-03-12T05:16:45;25.20;;;14.02;;
47749;SDS011;49810;48.160;10.812;2023-03-12T05:19:13;25.02;;;12.57;;
47749;SDS011;49810;48.160;10.812;2023-03-12T05:21:41;21.52;;;11.65;;
47749;SDS011;49810;48.160;10.812;2023-03-12T05:24:10;22.73;;;11.50;;
47749;SDS011;49810;48.160;10.812;2023-03-12T05:26:37;20.63;;;11.55;;
47749;SDS011;49810;48.160;10.812;2023-03-12T05:29:15;19.17;;;10.65;;
47749;SDS011;49810;48.160;10.812;2023-03-12T05:31:43;17.48;;;9.80;;
47749;SDS011;49810;48.160;10.812;2023-03-12T05:34:12;17.90;;;10.05;;
47749;SDS011;49810;48.160;10.812;2023-03-12T05:36:42;18.65;;;10.27;;
47749;SDS011;49810;48.160;10.812;2023-03-12T05:39:13;19.70;;;10.73;;
47749;SDS011;49810;48.160;10.812;2023-03-12T05:41:41;22.52;;;12.65;;
47749;SDS011;49810;48.160;10.812;2023-03-12T05:44:13;19.73;;;11.57;;
47749;SDS011;49810;48.160;10.812;2023-03-12T05:46:44;18.95;;;11.20;;
47749;SDS011;49810;48.160;10.812;2023-03-12T05:49:13;20.50;;;11.48;;
47749;SDS011;49810;48.160;10.812;2023-03-12T05:51:41;22.70;;;12.00;;
47749;SDS011;49810;48.160;10.812;2023-03-12T05:54:09;23.42;;;12.45;;
47749;SDS011;49810;48.160;10.812;2023-03-12T05:56:37;22.45;;;11.68;;
47749;SDS011;49810;48.160;10.812;2023-03-12T05:59:06;19.23;;;11.05;;
47749;SDS011;49810;48.160;10.812;2023-03-12T06:01:37;16.95;;;10.23;;
47749;SDS011;49810;48.160;10.812;2023-03-12T06:04:05;19.73;;;10.93;;
47749;SDS011;49810;48.160;10.812;2023-03-12T06:06:34;19.55;;;11.38;;
47749;SDS011;49810;48.160;10.812;2023-03-12T06:09:03;19.48;;;10.77;;
47749;SDS011;49810;48.160;10.812;2023-03-12T06:11:32;17.70;;;10.23;;
47749;SDS011;49810;48.160;10.812;2023-03-12T06:14:00;19.85;;;10.60;;
47749;SDS011;49810;48.160;10.812;2023-03-12T06:16:29;19.13;;;10.98;;
47749;SDS011;49810;48.160;10.812;2023-03-12T06:18:57;18.63;;;11.07;;
47749;SDS011;49810;48.160;10.812;2023-03-12T06:21:26;17.77;;;10.52;;
47749;SDS011;49810;48.160;10.812;2023-03-12T06:23:56;17.40;;;10.32;;
47749;SDS011;49810;48.160;10.812;2023-03-12T06:26:28;15.88;;;8.63;;
47749;SDS011;49810;48.160;10.812;2023-03-12T06:28:56;16.45;;;9.75;;
47749;SDS011;49810;48.160;10.812;2023-03-12T06:31:24;16.50;;;9.45;;
47749;SDS011;49810;48.160;10.812;2023-03-12T06:33:52;15.50;;;9.27;;
47749;SDS011;49810;48.160;10.812;2023-03-12T06:36:20;15.23;;;8.63;;
47749;SDS011;49810;48.160;10.812;2023-03-12T06:38:48;16.88;;;9.50;;
47749;SDS011;49810;48.160;10.812;2023-03-12T06:41:17;23.67;;;12.02;;
47749;SDS011;49810;48.160;10.812;2023-03-12T06:43:46;14.70;;;8.98;;
47749;SDS011;49810;48.160;10.812;2023-03-12T06:46:15;15.75;;;8.35;;
47749;SDS011;49810;48.160;10.812;2023-03-12T06:48:44;14.18;;;8.38;;
47749;SDS011;49810;48.160;10.812;2023-03-12T06:51:12;16.30;;;8.93;;
47749;SDS011;49810;48.160;10.812;2023-03-12T06:53:40;13.30;;;8.48;;
47749;SDS011;49810;48.160;10.812;2023-03-12T06:56:08;15.48;;;9.30;;
47749;SDS011;49810;48.160;10.812;2023-03-12T06:58:38;13.30;;;7.90;;
47749;SDS011;49810;48.160;10.812;2023-03-12T07:01:05;13.30;;;8.27;;
47749;SDS011;49810;48.160;10.812;2023-03-12T07:03:33;14.40;;;8.80;;
47749;SDS011;49810;48.160;10.812;2023-03-12T07:06:01;13.45;;;7.30;;
47749;SDS011;49810;48.160;10.812;2023-03-12T07:08:29;13.23;;;7.55;;
47749;SDS011;49810;48.160;10.812;2023-03-12T07:10:58;11.93;;;7.53;;
47749;SDS011;49810;48.160;10.812;2023-03-12T07:13:27;17.88;;;10.45;;
47749;SDS011;49810;48.160;10.812;2023-03-12T07:15:56;14.93;;;8.65;;
47749;SDS011;49810;48.160;10.812;2023-03-12T07:18:24;14.95;;;7.72;;
47749;SDS011;49810;48.160;10.812;2023-03-12T07:20:52;13.20;;;8.38;;
47749;SDS011;49810;48.160;10.812;2023-03-12T07:23:20;14.18;;;8.55;;
47749;SDS011;49810;48.160;10.812;2023-03-12T07:25:48;16.23;;;9.68;;
47749;SDS011;49810;48.160;10.812;2023-03-12T07:28:16;16.60;;;8.00;;
47749;SDS011;49810;48.160;10.812;2023-03-12T07:30:44;12.82;;;7.72;;
47749;SDS011;49810;48.160;10.812;2023-03-12T07:33:17;12.15;;;7.28;;
47749;SDS011;49810;48.160;10.812;2023-03-12T07:35:46;17.45;;;9.68;;
47749;SDS011;49810;48.160;10.812;2023-03-12T07:38:17;14.60;;;8.25;;
47749;SDS011;49810;48.160;10.812;2023-03-12T07:40:48;14.75;;;7.78;;
47749;SDS011;49810;48.160;10.812;2023-03-12T07:43:17;14.10;;;7.72;;
47749;SDS011;49810;48.160;10.812;2023-03-12T07:45:48;10.73;;;6.95;;
47749;SDS011;49810;48.160;10.812;2023-03-12T07:48:17;10.60;;;7.05;;
47749;SDS011;49810;48.160;10.812;2023-03-12T07:50:46;13.85;;;7.30;;
47749;SDS011;49810;48.160;10.812;2023-03-12T07:53:14;11.80;;;6.50;;
47749;SDS011;49810;48.160;10.812;2023-03-12T07:55:42;11.35;;;6.57;;
47749;SDS011;49810;48.160;10.812;2023-03-12T07:58:11;14.13;;;8.95;;
47749;SDS011;49810;48.160;10.812;2023-03-12T08:00:39;11.18;;;6.85;;
47749;SDS011;49810;48.160;10.812;2023-03-12T08:03:07;10.02;;;6.43;;
47749;SDS011;49810;48.160;10.812;2023-03-12T08:05:37;9.18;;;5.63;;
47749;SDS011;49810;48.160;10.812;2023-03-12T08:08:05;10.32;;;6.07;;
47749;SDS011;49810;48.160;10.812;2023-03-12T08:10:33;12.65;;;6.40;;
47749;SDS011;49810;48.160;10.812;2023-03-12T08:13:00;10.57;;;6.28;;
47749;SDS011;49810;48.160;10.812;2023-03-12T08:15:28;11.07;;;6.05;;
47749;SDS011;49810;48.160;10.812;2023-03-12T08:17:56;10.57;;;6.10;;
47749;SDS011;49810;48.160;10.812;2023-03-12T08:20:24;10.57;;;5.90;;
47749;SDS011;49810;48.160;10.812;2023-03-12T08:22:54;8.85;;;5.28;;
47749;SDS011;49810;48.160;10.812;2023-03-12T08:25:22;7.95;;;5.03;;
47749;SDS011;49810;48.160;10.812;2023-03-12T08:27:50;9.07;;;5.65;;
47749;SDS011;49810;48.160;10.812;2023-03-12T08:30:18;8.63;;;4.90;;
47749;SDS011;49810;48.160;10.812;2023-03-12T08:32:46;9.70;;;4.93;;
47749;SDS011;49810;48.160;10.812;2023-03-12T08:35:14;10.75;;;5.95;;
47749;SDS011;49810;48.160;10.812;2023-03-12T08:37:41;8.25;;;5.25;;
47749;SDS011;49810;48.160;10.812;2023-03-12T08:40:11;10.68;;;5.75;;
47749;SDS011;49810;48.160;10.812;2023-03-12T08:42:39;7.80;;;4.53;;
47749;SDS011;49810;48.160;10.812;2023-03-12T08:45:07;11.07;;;5.78;;
47749;SDS011;49810;48.160;10.812;2023-03-12T08:47:35;9.50;;;4.95;;
47749;SDS011;49810;48.160;10.812;2023-03-12T08:50:06;9.93;;;5.68;;
47749;SDS011;49810;48.160;10.812;2023-03-12T08:52:34;12.70;;;7.00;;
47749;SDS011;49810;48.160;10.812;2023-03-12T08:55:01;9.10;;;5.90;;
47749;SDS011;49810;48.160;10.812;2023-03-12T08:57:33;9.10;;;4.45;;
47749;SDS011;49810;48.160;10.812;2023-03-12T09:00:01;11.13;;;5.75;;
47749;SDS011;49810;48.160;10.812;2023-03-12T09:02:31;7.05;;;4.65;;
47749;SDS011;49810;48.160;10.812;2023-03-12T09:04:59;7.68;;;4.72;;
47749;SDS011;49810;48.160;10.812;2023-03-12T09:07:26;11.48;;;6.53;;
47749;SDS011;49810;48.160;10.812;2023-03-12T09:09:54;15.68;;;8.57;;
47749;SDS011;49810;48.160;10.812;2023-03-12T09:12:22;11.68;;;6.30;;
47749;SDS011;49810;48.160;10.812;2023-03-12T09:14:51;14.93;;;7.63;;
47749;SDS011;49810;48.160;10.812;2023-03-12T09:17:34;10.00;;;4.55;;
47749;SDS011;49810;48.160;10.812;2023-03-12T09:20:04;9.75;;;5.63;;
47749;SDS011;49810;48.160;10.812;2023-03-12T09:22:33;12.82;;;7.00;;
47749;SDS011;49810;48.160;10.812;2023-03-12T09:25:02;24.00;;;12.27;;
47749;SDS011;49810;48.160;10.812;2023-03-12T09:27:34;14.27;;;7.20;;
47749;SDS011;49810;48.160;10.812;2023-03-12T09:30:03;14.95;;;8.13;;
47749;SDS011;49810;48.160;10.812;2023-03-12T09:32:32;10.75;;;6.13;;
47749;SDS011;49810;48.160;10.812;2023-03-12T09:35:00;11.43;;;6.38;;
47749;SDS011;49810;48.160;10.812;2023-03-12T09:37:28;9.23;;;5.80;;
47749;SDS011;49810;48.160;10.812;2023-03-12T09:39:57;12.25;;;7.03;;
47749;SDS011;49810;48.160;10.812;2023-03-12T09:42:26;6.97;;;4.60;;
47749;SDS011;49810;48.160;10.812;2023-03-12T09:44:56;9.48;;;4.80;;
47749;SDS011;49810;48.160;10.812;2023-03-12T09:47:28;8.32;;;4.80;;
47749;SDS011;49810;48.160;10.812;2023-03-12T09:49:58;9.93;;;7.00;;
47749;SDS011;49810;48.160;10.812;2023-03-12T09:52:29;9.93;;;5.95;;
47749;SDS011;49810;48.160;10.812;2023-03-12T09:55:01;8.35;;;4.80;;
47749;SDS011;49810;48.160;10.812;2023-03-12T09:57:29;11.73;;;5.45;;
47749;SDS011;49810;48.160;10.812;2023-03-12T09:59:57;10.40;;;6.22;;
47749;SDS011;49810;48.160;10.812;2023-03-12T10:05:12;18.08;;;11.13;;
47749;SDS011;49810;48.160;10.812;2023-03-12T10:07:46;11.25;;;6.32;;
47749;SDS011;49810;48.160;10.812;2023-03-12T10:10:17;23.88;;;8.73;;
47749;SDS011;49810;48.160;10.812;2023-03-12T10:13:00;18.48;;;9.02;;
47749;SDS011;49810;48.160;10.812;2023-03-12T10:15:35;12.80;;;7.10;;
47749;SDS011;49810;48.160;10.812;2023-03-12T10:18:08;12.35;;;6.97;;
47749;SDS011;49810;48.160;10.812;2023-03-12T10:20:47;8.48;;;5.00;;
47749;SDS011;49810;48.160;10.812;2023-03-12T10:23:19;9.40;;;5.60;;
47749;SDS011;49810;48.160;10.812;2023-03-12T10:25:50;12.00;;;6.28;;
47749;SDS011;49810;48.160;10.812;2023-03-12T10:28:20;10.18;;;6.22;;
47749;SDS011;49810;48.160;10.812;2023-03-12T10:30:49;9.65;;;5.57;;
47749;SDS011;49810;48.160;10.812;2023-03-12T10:33:18;8.50;;;4.93;;
47749;SDS011;49810;48.160;10.812;2023-03-12T10:35:49;10.10;;;6.82;;
47749;SDS011;49810;48.160;10.812;2023-03-12T10:38:21;9.38;;;5.82;;
47749;SDS011;49810;48.160;10.812;2023-03-12T10:40:51;9.57;;;5.95;;
47749;SDS011;49810;48.160;10.812;2023-03-12T10:43:19;11.05;;;6.45;;
47749;SDS011;49810;48.160;10.812;2023-03-12T10:45:49;10.85;;;5.80;;
47749;SDS011;49810;48.160;10.812;2023-03-12T10:48:24;11.93;;;6.22;;
47749;SDS011;49810;48.160;10.812;2023-03-12T10:51:03;10.40;;;6.45;;
47749;SDS011;49810;48.160;10.812;2023-03-12T10:53:32;10.65;;;6.30;;
47749;SDS011;49810;48.160;10.812;2023-03-12T10:56:02;9.15;;;5.55;;
47749;SDS011;49810;48.160;10.812;2023-03-12T10:58:32;9.98;;;6.35;;
47749;SDS011;49810;48.160;10.812;2023-03-12T11:01:01;9.65;;;6.35;;
47749;SDS011;49810;48.160;10.812;2023-03-12T11:03:31;8.05;;;5.65;;
47749;SDS011;49810;48.160;10.812;2023-03-12T11:06:03;8.90;;;5.93;;
47749;SDS011;49810;48.160;10.812;2023-03-12T11:08:34;8.77;;;5.93;;
47749;SDS011;49810;48.160;10.812;2023-03-12T11:11:02;10.43;;;6.90;;
47749;SDS011;49810;48.160;10.812;2023-03-12T11:13:31;11.88;;;6.80;;
47749;SDS011;49810;48.160;10.812;2023-03-12T11:16:00;10.63;;;6.57;;
47749;SDS011;49810;48.160;10.812;2023-03-12T11:18:29;8.98;;;5.10;;
47749;SDS011;49810;48.160;10.812;2023-03-12T11:21:14;8.18;;;5.40;;
47749;SDS011;49810;48.160;10.812;2023-03-12T11:23:43;9.02;;;5.47;;
47749;SDS011;49810;48.160;10.812;2023-03-12T11:26:15;8.48;;;5.50;;
47749;SDS011;49810;48.160;10.812;2023-03-12T11:28:45;10.05;;;5.53;;
47749;SDS011;49810;48.160;10.812;2023-03-12T11:31:15;9.27;;;5.60;;
47749;SDS011;49810;48.160;10.812;2023-03-12T11:33:45;9.98;;;5.38;;
47749;SDS011;49810;48.160;10.812;2023-03-12T11:36:19;7.85;;;4.57;;
47749;SDS011;49810;48.160;10.812;2023-03-12T11:38:49;7.20;;;4.63;;
47749;SDS011;49810;48.160;10.812;2023-03-12T11:41:23;8.55;;;4.57;;
47749;SDS011;49810;48.160;10.812;2023-03-12T11:43:56;7.43;;;4.30;;
47749;SDS011;49810;48.160;10.812;2023-03-12T11:46:30;9.88;;;4.70;;
47749;SDS011;49810;48.160;10.812;2023-03-12T11:49:07;8.55;;;4.55;;
47749;SDS011;49810;48.160;10.812;2023-03-12T11:51:42;7.75;;;4.72;;
47749;SDS011;49810;48.160;10.812;2023-03-12T11:54:15;8.45;;;5.22;;
47749;SDS011;49810;48.160;10.812;2023-03-12T11:56:50;5.90;;;4.00;;
47749;SDS011;49810;48.160;10.812;2023-03-12T11:59:22;7.40;;;4.60;;
47749;SDS011;49810;48.160;10.812;2023-03-12T12:01:55;7.95;;;4.22;;
47749;SDS011;49810;48.160;10.812;2023-03-12T12:07:13;8.43;;;4.55;;
47749;SDS011;49810;48.160;10.812;2023-03-12T12:09:45;9.45;;;4.60;;
47749;SDS011;49810;48.160;10.812;2023-03-12T12:12:18;6.30;;;4.07;;
47749;SDS011;49810;48.160;10.812;2023-03-12T12:14:51;7.35;;;4.78;;
47749;SDS011;49810;48.160;10.812;2023-03-12T12:17:24;7.43;;;4.55;;
47749;SDS011;49810;48.160;10.812;2023-03-12T12:19:59;7.45;;;4.07;;
47749;SDS011;49810;48.160;10.812;2023-03-12T12:22:40;7.20;;;4.57;;
47749;SDS011;49810;48.160;10.812;2023-03-12T12:25:15;9.65;;;4.40;;
47749;SDS011;49810;48.160;10.812;2023-03-12T12:27:50;5.95;;;4.00;;
47749;SDS011;49810;48.160;10.812;2023-03-12T12:30:20;9.35;;;4.32;;
47749;SDS011;49810;48.160;10.812;2023-03-12T12:32:56;7.05;;;4.38;;
47749;SDS011;49810;48.160;10.812;2023-03-12T12:35:26;6.93;;;3.90;;
47749;SDS011;49810;48.160;10.812;2023-03-12T12:37:58;9.25;;;4.72;;
47749;SDS011;49810;48.160;10.812;2023-03-12T12:40:30;9.32;;;5.13;;
47749;SDS011;49810;48.160;10.812;2023-03-12T12:43:05;6.72;;;4.70;;
47749;SDS011;49810;48.160;10.812;2023-03-12T12:45:36;7.68;;;3.90;;
47749;SDS011;49810;48.160;10.812;2023-03-12T12:48:06;7.28;;;4.35;;
47749;SDS011;49810;48.160;10.812;2023-03-12T12:50:35;7.63;;;4.35;;
47749;SDS011;49810;48.160;10.812;2023-03-12T12:53:12;7.53;;;3.80;;
47749;SDS011;49810;48.160;10.812;2023-03-12T12:55:42;8.88;;;4.22;;
47749;SDS011;49810;48.160;10.812;2023-03-12T12:58:14;9.15;;;4.20;;
47749;SDS011;49810;48.160;10.812;2023-03-12T13:00:47;6.45;;;3.47;;
47749;SDS011;49810;48.160;10.812;2023-03-12T13:03:16;5.90;;;3.45;;
47749;SDS011;49810;48.160;10.812;2023-03-12T13:05:54;8.60;;;3.60;;
47749;SDS011;49810;48.160;10.812;2023-03-12T13:11:23;9.30;;;4.40;;
47749;SDS011;49810;48.160;10.812;2023-03-12T13:16:36;8.40;;;3.85;;
47749;SDS011;49810;48.160;10.812;2023-03-12T13:19:05;11.70;;;5.15;;
47749;SDS011;49810;48.160;10.812;2023-03-12T13:21:36;8.15;;;3.92;;
47749;SDS011;49810;48.160;10.812;2023-03-12T13:24:09;7.97;;;3.88;;
47749;SDS011;49810;48.160;10.812;2023-03-12T13:26:51;12.70;;;6.78;;
47749;SDS011;49810;48.160;10.812;2023-03-12T13:29:21;7.22;;;3.58;;
47749;SDS011;49810;48.160;10.812;2023-03-12T13:31:49;5.20;;;2.60;;
47749;SDS011;49810;48.160;10.812;2023-03-12T13:37:20;7.10;;;3.58;;
47749;SDS011;49810;48.160;10.812;2023-03-12T13:39:53;6.60;;;3.20;;
47749;SDS011;49810;48.160;10.812;2023-03-12T13:45:23;8.23;;;2.90;;
47749;SDS011;49810;48.160;10.812;2023-03-12T13:47:52;6.60;;;3.03;;
47749;SDS011;49810;48.160;10.812;2023-03-12T13:50:22;8.10;;;3.55;;
47749;SDS011;49810;48.160;10.812;2023-03-12T13:52:53;6.18;;;3.05;;
47749;SDS011;49810;48.160;10.812;2023-03-12T13:55:23;8.45;;;2.92;;
47749;SDS011;49810;48.160;10.812;2023-03-12T13:57:53;6.07;;;2.72;;
47749;SDS011;49810;48.160;10.812;2023-03-12T14:00:25;5.18;;;2.70;;
47749;SDS011;49810;48.160;10.812;2023-03-12T14:02:54;5.35;;;2.45;;
47749;SDS011;49810;48.160;10.812;2023-03-12T14:05:24;3.60;;;2.00;;
47749;SDS011;49810;48.160;10.812;2023-03-12T14:10:44;4.38;;;2.08;;
47749;SDS011;49810;48.160;10.812;2023-03-12T14:13:23;3.45;;;1.70;;
47749;SDS011;49810;48.160;10.812;2023-03-12T14:15:57;5.22;;;2.08;;
47749;SDS011;49810;48.160;10.812;2023-03-12T14:18:27;6.15;;;2.00;;
47749;SDS011;49810;48.160;10.812;2023-03-12T14:20:57;4.03;;;1.73;;
47749;SDS011;49810;48.160;10.812;2023-03-12T14:23:26;6.15;;;1.90;;
47749;SDS011;49810;48.160;10.812;2023-03-12T14:25:55;5.32;;;1.80;;
47749;SDS011;49810;48.160;10.812;2023-03-12T14:28:25;3.90;;;2.13;;
47749;SDS011;49810;48.160;10.812;2023-03-12T14:30:55;5.90;;;2.03;;
47749;SDS011;49810;48.160;10.812;2023-03-12T14:33:25;4.70;;;1.77;;
47749;SDS011;49810;48.160;10.812;2023-03-12T14:35:56;2.83;;;1.30;;
47749;SDS011;49810;48.160;10.812;2023-03-12T14:38:25;2.50;;;1.33;;
47749;SDS011;49810;48.160;10.812;2023-03-12T14:40:56;6.22;;;1.77;;
47749;SDS011;49810;48.160;10.812;2023-03-12T14:43:27;2.95;;;1.50;;
47749;SDS011;49810;48.160;10.812;2023-03-12T14:45:56;3.95;;;1.50;;
47749;SDS011;49810;48.160;10.812;2023-03-12T14:48:27;3.00;;;1.38;;
47749;SDS011;49810;48.160;10.812;2023-03-12T14:50:56;2.63;;;1.20;;
47749;SDS011;49810;48.160;10.812;2023-03-12T14:53:25;2.60;;;1.40;;
47749;SDS011;49810;48.160;10.812;2023-03-12T14:56:00;2.90;;;1.60;;
47749;SDS011;49810;48.160;10.812;2023-03-12T14:58:28;4.53;;;1.73;;
47749;SDS011;49810;48.160;10.812;2023-03-12T15:00:57;6.88;;;2.35;;